KMQS

Chester County G O Carlson Airport

Coatesville, Pennsylvania, USA
METAR KMQS 220035Z AUTO 24004KT 10SM FEW095 20/M39 A3032 RMK AO2
Observed Flight Rules
Feb-22 @ 00:35 UTC (4 hours ago) Visual Flight Rules
Wind Visibility Clouds
240° at 4 knots 10 miles
  • Few at 9,500' AGL
Temperatures Readings
Current 20°C / 68°F
Dewpoint -39°C / -38°F
Humidity 1%
Altimeter 30.32" Hg
Pressure 1027 hPa
Elevation 201
METAR KMQS 220035Z AUTO 24004KT 10SM FEW095 20/M39 A3032 RMK AO2
Observed Flight Rules
Feb-22 @ 00:35 UTC
(4 hours ago)
VFR
Wind Visibility
240° at 4 knots 10 miles
Clouds
  • Few at 9,500' AGL
Temperature Dewpoint
20°C / 68°F -39°C / -38°F
Humidity Altimeter Pressure
1% 30.32" Hg 1027 hPa